Rechercher aéroport 
image banner adimage banner adimage banner ad
image banner ad

PA04 - Brookville Hospital

Situé à Brookville, United States

ICAO - PA04, IATA -

Données fournies par Airmate  

Information générale

Coordonnées: N41°9'23" W79°5'35"
Élévation : 1516 feet MSL.
Variation magnétique : -10° East
Voir autres Aéroports à Pennsylvania

Données opérationnelles

Special qualification required
Heure actuelle UTC:
Heure actuelle locale:
Météo à : KDUJ - Dubois Rgnl ( 16 km )
METAR: KDUJ 132053Z AUTO 24006KT 10SM FEW095 27/18 A2985 RMK AO2 LTG DSNT E SLP093 T02670178 58015 $
TAF: KDUJ 131720Z 1318/1418 26005KT P6SM SCT060 FM132000 27005KT P6SM VCTS BKN060CB FM140100 29003KT P6SM SCT060 FM140800 00000KT 5SM BR BKN020 FM141300 26004KT P6SM BKN025
Voir NOTAMs / SUP AIP / TFR affectant cet aéroport [VIEW]
Fréquences de communication: [VIEW]

Pistes:

Coordonnées de l'aéroport

Adresse: Brookville United States

Vue satellite de PA04